Huvudsida
METAR-TAF:

METAR-TAF

Flygplatser :

Stords flygplats. Sørstokken

Stords, Norge

latitud: 59-48N, longitud: 005-21E, höjd: 49 m

Aktuellt väderrapport

Denna rapport gjordes för 1 timme och 13 minuter sedan, klockan 08:50 UTC
Vind 11 kt från väst
Temperatur 8°C
Fuktighet 93%
Tryck 1021 hPa
Sikt 10 km eller mer
Få moln på en höjd av 1500 ft
Spridda moln på en höjd av 3500 ft

METAR: ENSO 200850Z 27011KT 9999 FEW015 SCT035 08/07 Q1021

Tid: 11:03 (10:03 UTC)

Väderprognos

Denna rapport gjordes för 2 timmar och 3 minuter sedan, klockan 08:00 UTC
Prognos gäller från 20 kl. 09 UTC till 20 kl. 18 UTC
Vind 10 kt från väst
Sikt 10 km eller mer
Spridda moln på en höjd av 2000 ft
Blir
från 20 kl. 15 UTC till 20 kl. 18 UTC
Vind 6 kt varierande vindriktning

TAF: ENSO 200800Z 2009/2018 26010KT 9999 SCT020 BECMG 2015/2018 VRB06KT

Aktuella väderrapporter och prognoser från 4000 flygplatser (METAR- och TAF-rapporter).

De tillgängliga stationerna syns som gula och röda prickar på kartan.

För musen över prickarna för att se namnen på stationerna.

Klicka sedan för att få väderrapporter och prognoser.

För att ändra kartan: Klicka på de gröna knapparna med ett svart kors på för att zooma in; den gröna knappen med ett streck på för att zooma ut; eller på de gröna pilarna för angränsande kartor.


METAR-TAF: